createdAt,value
2022-08-04T00:00:30.143Z,97446.00
2022-08-04T00:03:16.750Z,97450.00
2022-08-04T00:06:15.425Z,97436.00
2022-08-04T00:08:50.389Z,97447.00
2022-08-04T00:11:26.571Z,97450.00
2022-08-04T00:14:10.246Z,97446.00
2022-08-04T00:16:41.138Z,97437.00
2022-08-04T00:19:29.945Z,97433.00
2022-08-04T00:22:04.519Z,97446.00
2022-08-04T00:24:34.025Z,97442.00
2022-08-04T00:27:01.265Z,97445.00
2022-08-04T00:29:28.343Z,97455.00
2022-08-04T00:31:58.016Z,97433.00
2022-08-04T00:34:28.419Z,97446.00
2022-08-04T00:36:56.610Z,97456.00
2022-08-04T00:39:24.880Z,97445.00
2022-08-04T00:42:58.250Z,97455.00
2022-08-04T00:46:15.077Z,97451.00
2022-08-04T00:49:17.180Z,97445.00
2022-08-04T00:52:32.425Z,97447.00
2022-08-04T00:55:07.095Z,97438.00
2022-08-04T00:58:27.674Z,97440.00
2022-08-04T01:01:38.339Z,97440.00
2022-08-04T01:04:36.316Z,97439.00
2022-08-04T01:07:55.409Z,97439.00
2022-08-04T01:10:50.985Z,97428.00
2022-08-04T01:13:59.220Z,97444.00
2022-08-04T01:16:27.588Z,97431.00
2022-08-04T01:19:51.215Z,97431.00
2022-08-04T01:22:35.087Z,97427.00
2022-08-04T01:25:57.267Z,97434.00
2022-08-04T01:28:38.939Z,97434.00
2022-08-04T01:31:30.348Z,97422.00
2022-08-04T01:34:04.517Z,97422.00
2022-08-04T01:36:35.848Z,97416.00
2022-08-04T01:39:22.559Z,97425.00
2022-08-04T01:41:57.676Z,97413.00
2022-08-04T01:44:32.697Z,97426.00
2022-08-04T01:47:02.179Z,97415.00
2022-08-04T01:49:40.210Z,97411.00
2022-08-04T01:52:10.297Z,97419.00
2022-08-04T01:54:42.745Z,97407.00
2022-08-04T01:57:38.347Z,97415.00
2022-08-04T02:00:06.597Z,97400.00
2022-08-04T02:02:36.019Z,97398.00
2022-08-04T02:05:03.312Z,97410.00
2022-08-04T02:07:40.894Z,97403.00
2022-08-04T02:10:23.351Z,97402.00
2022-08-04T02:13:19.088Z,97403.00
2022-08-04T02:15:58.945Z,97395.00
2022-08-04T02:18:37.924Z,97397.00
2022-08-04T02:21:05.915Z,97400.00
2022-08-04T02:23:41.696Z,97391.00
2022-08-04T02:26:24.589Z,97391.00
2022-08-04T02:29:32.216Z,97386.00
2022-08-04T02:32:14.083Z,97393.00
2022-08-04T02:34:54.522Z,97381.00
2022-08-04T02:37:24.239Z,97392.00
2022-08-04T02:39:54.306Z,97383.00
2022-08-04T02:42:22.007Z,97374.00
2022-08-04T02:44:52.563Z,97376.00
2022-08-04T02:48:29.207Z,97369.00
2022-08-04T02:50:15.141Z,97378.00
2022-08-04T02:53:00.635Z,97374.00
2022-08-04T02:55:30.430Z,97376.00
2022-08-04T02:58:04.276Z,97380.00
2022-08-04T03:00:31.988Z,97377.00
2022-08-04T03:03:26.050Z,97366.00
2022-08-04T03:06:32.848Z,97371.00
2022-08-04T03:09:46.652Z,97370.00
2022-08-04T03:13:03.826Z,97377.00
2022-08-04T03:16:04.879Z,97370.00
2022-08-04T03:19:26.447Z,97370.00
2022-08-04T03:22:22.855Z,97368.00
2022-08-04T03:25:27.197Z,97364.00
2022-08-04T03:28:46.679Z,97374.00
2022-08-04T03:32:15.165Z,97366.00
2022-08-04T03:35:37.484Z,97366.00
2022-08-04T03:38:29.205Z,97373.00
2022-08-04T03:41:51.930Z,97363.00
2022-08-04T03:44:44.047Z,97358.00
2022-08-04T03:47:43.567Z,97359.00
2022-08-04T03:50:41.402Z,97361.00
2022-08-04T03:53:42.371Z,97374.00
2022-08-04T03:56:40.284Z,97363.00
2022-08-04T03:59:36.740Z,97359.00
2022-08-04T04:02:55.010Z,97358.00
2022-08-04T04:06:02.392Z,97360.00
2022-08-04T04:09:16.304Z,97361.00
2022-08-04T04:12:36.833Z,97368.00
2022-08-04T04:15:48.249Z,97360.00
2022-08-04T04:18:27.289Z,97354.00
2022-08-04T04:21:22.308Z,97351.00
2022-08-04T04:24:45.914Z,97360.00
2022-08-04T04:27:47.689Z,97353.00
2022-08-04T04:30:40.762Z,97362.00
2022-08-04T04:33:32.624Z,97356.00
2022-08-04T04:36:43.281Z,97357.00
2022-08-04T04:39:36.737Z,97367.00
2022-08-04T04:42:31.931Z,97365.00
2022-08-04T04:45:17.854Z,97348.00
2022-08-04T04:48:27.770Z,97354.00
2022-08-04T04:51:16.499Z,97357.00
2022-08-04T04:54:13.832Z,97352.00
2022-08-04T04:57:03.498Z,97360.00
2022-08-04T04:59:36.381Z,97365.00
2022-08-04T05:03:06.038Z,97353.00
2022-08-04T05:06:15.320Z,97355.00
2022-08-04T05:09:29.104Z,97354.00
2022-08-04T05:14:26.352Z,97352.00
2022-08-04T05:15:11.175Z,97361.00
2022-08-04T05:17:43.008Z,97344.00
2022-08-04T05:20:27.762Z,97349.00
2022-08-04T05:23:02.046Z,97360.00
2022-08-04T05:25:55.302Z,97349.00
2022-08-04T05:28:54.860Z,97353.00
2022-08-04T05:31:29.206Z,97344.00
2022-08-04T05:34:05.577Z,97354.00
2022-08-04T05:36:47.495Z,97342.00
2022-08-04T05:39:25.367Z,97347.00
2022-08-04T05:41:55.359Z,97345.00
2022-08-04T05:44:28.279Z,97343.00
2022-08-04T05:46:58.519Z,97356.00
2022-08-04T05:49:28.693Z,97339.00
2022-08-04T05:52:01.106Z,97357.00
2022-08-04T05:54:32.043Z,97346.00
2022-08-04T05:57:00.374Z,97349.00
2022-08-04T05:59:29.813Z,97343.00
2022-08-04T06:02:00.876Z,97346.00
2022-08-04T06:04:39.872Z,97354.00
2022-08-04T06:07:08.258Z,97345.00
2022-08-04T06:09:35.193Z,97347.00
2022-08-04T06:12:18.018Z,97354.00
2022-08-04T06:14:49.016Z,97356.00
2022-08-04T06:19:40.116Z,97356.00
2022-08-04T06:20:23.231Z,97346.00
2022-08-04T06:22:56.174Z,97358.00
2022-08-04T06:25:31.163Z,97348.00
2022-08-04T06:28:00.761Z,97344.00
2022-08-04T06:30:32.203Z,97359.00
2022-08-04T06:33:05.236Z,97354.00
2022-08-04T06:35:34.908Z,97352.00
2022-08-04T06:38:03.330Z,97360.00
2022-08-04T06:40:34.050Z,97362.00
2022-08-04T06:43:07.881Z,97350.00
2022-08-04T06:45:39.800Z,97352.00
2022-08-04T06:48:08.901Z,97356.00
2022-08-04T06:51:24.985Z,97350.00
2022-08-04T06:53:27.022Z,97359.00
2022-08-04T06:55:56.235Z,97355.00
2022-08-04T06:58:25.359Z,97346.00
2022-08-04T07:00:55.699Z,97347.00
2022-08-04T07:03:23.301Z,97348.00
2022-08-04T07:05:52.205Z,97350.00
2022-08-04T07:08:20.735Z,97363.00
2022-08-04T07:10:49.156Z,97359.00
2022-08-04T07:13:18.045Z,97360.00
2022-08-04T07:15:47.392Z,97353.00
2022-08-04T07:18:14.612Z,97352.00
2022-08-04T07:20:46.366Z,97353.00
2022-08-04T07:23:19.785Z,97345.00
2022-08-04T07:25:59.738Z,97350.00
2022-08-04T07:28:41.324Z,97348.00
2022-08-04T07:31:31.858Z,97344.00
2022-08-04T07:34:21.450Z,97347.00
2022-08-04T07:36:52.933Z,97342.00
2022-08-04T07:39:28.427Z,97332.00
2022-08-04T07:42:01.649Z,97344.00
2022-08-04T07:44:34.449Z,97339.00
2022-08-04T07:47:04.154Z,97337.00
2022-08-04T07:49:52.185Z,97342.00
2022-08-04T07:52:18.923Z,97340.00
2022-08-04T07:54:47.407Z,97333.00
2022-08-04T07:57:19.582Z,97336.00
2022-08-04T07:59:50.378Z,97344.00
2022-08-04T08:02:21.845Z,97341.00
2022-08-04T08:04:50.052Z,97328.00
2022-08-04T08:07:20.457Z,97332.00
2022-08-04T08:09:48.024Z,97330.00
2022-08-04T08:12:38.401Z,97335.00
2022-08-04T08:15:04.640Z,97329.00
2022-08-04T08:17:31.634Z,97327.00
2022-08-04T08:20:29.451Z,97339.00
2022-08-04T08:23:00.853Z,97330.00
2022-08-04T08:25:27.967Z,97331.00
2022-08-04T08:27:56.052Z,97329.00
2022-08-04T08:30:31.686Z,97343.00
2022-08-04T08:33:07.953Z,97332.00
2022-08-04T08:35:55.020Z,97329.00
2022-08-04T08:38:38.692Z,97337.00
2022-08-04T08:42:06.329Z,97326.00
2022-08-04T08:45:09.502Z,97331.00
2022-08-04T08:48:06.210Z,97342.00
2022-08-04T08:51:11.444Z,97339.00
2022-08-04T08:54:22.700Z,97338.00
2022-08-04T08:57:13.819Z,97346.00
2022-08-04T09:00:21.703Z,97335.00
2022-08-04T09:03:24.712Z,97339.00
2022-08-04T09:06:16.321Z,97342.00
2022-08-04T09:09:23.475Z,97338.00
2022-08-04T09:12:12.996Z,97335.00
2022-08-04T09:14:54.313Z,97338.00
2022-08-04T09:17:29.995Z,97334.00
2022-08-04T09:20:06.124Z,97340.00
2022-08-04T09:22:59.977Z,97337.00
2022-08-04T09:25:38.712Z,97338.00
2022-08-04T09:28:37.193Z,97320.00
2022-08-04T09:31:17.029Z,97338.00
2022-08-04T09:34:09.990Z,97334.00
2022-08-04T09:37:17.368Z,97345.00
2022-08-04T09:40:03.926Z,97342.00
2022-08-04T09:42:54.703Z,97335.00
2022-08-04T09:45:46.907Z,97340.00
2022-08-04T09:48:58.963Z,97332.00
2022-08-04T09:51:58.719Z,97333.00
2022-08-04T09:54:43.825Z,97331.00
2022-08-04T09:57:36.612Z,97333.00
2022-08-04T10:00:16.819Z,97326.00
2022-08-04T10:03:00.966Z,97322.00
2022-08-04T10:06:15.165Z,97328.00
2022-08-04T10:09:27.383Z,97329.00
2022-08-04T10:12:22.897Z,97317.00
2022-08-04T10:15:17.204Z,97333.00
2022-08-04T10:18:17.097Z,97327.00
2022-08-04T10:21:19.531Z,97334.00
2022-08-04T10:24:15.524Z,97331.00
2022-08-04T10:27:02.940Z,97330.00
2022-08-04T10:29:47.993Z,97324.00
2022-08-04T10:32:43.120Z,97326.00
2022-08-04T10:35:18.451Z,97326.00
2022-08-04T10:38:26.780Z,97322.00
2022-08-04T10:41:06.393Z,97324.00
2022-08-04T10:43:36.321Z,97321.00
2022-08-04T10:46:17.157Z,97330.00
2022-08-04T10:49:14.653Z,97319.00
2022-08-04T10:52:22.188Z,97322.00
2022-08-04T10:55:08.349Z,97326.00
2022-08-04T10:57:52.524Z,97316.00
2022-08-04T11:00:26.544Z,97323.00
2022-08-04T11:03:38.846Z,97325.00
2022-08-04T11:06:06.747Z,97323.00
2022-08-04T11:08:47.624Z,97316.00
2022-08-04T11:12:01.060Z,97320.00
2022-08-04T11:14:36.192Z,97331.00
2022-08-04T11:17:38.170Z,97336.00
2022-08-04T11:23:17.216Z,97317.00
2022-08-04T11:26:02.580Z,97329.00
2022-08-04T11:29:04.134Z,97316.00
2022-08-04T11:31:36.049Z,97319.00
2022-08-04T11:34:23.542Z,97314.00
2022-08-04T11:37:03.053Z,97315.00
2022-08-04T11:39:37.287Z,97325.00
2022-08-04T11:42:34.072Z,97316.00
2022-08-04T11:45:24.466Z,97331.00
2022-08-04T11:48:05.340Z,97333.00
2022-08-04T11:50:41.416Z,97337.00
2022-08-04T11:53:19.257Z,97335.00
2022-08-04T11:56:08.341Z,97336.00
2022-08-04T11:58:38.188Z,97330.00
2022-08-04T12:01:30.052Z,97338.00
2022-08-04T12:04:37.735Z,97332.00
2022-08-04T12:07:30.473Z,97337.00
2022-08-04T12:10:42.166Z,97336.00
2022-08-04T12:13:35.179Z,97343.00
2022-08-04T12:16:07.844Z,97337.00
2022-08-04T12:18:52.628Z,97343.00
2022-08-04T12:21:39.295Z,97348.00
2022-08-04T12:24:31.029Z,97345.00
2022-08-04T12:27:07.034Z,97339.00
2022-08-04T12:29:37.022Z,97340.00
2022-08-04T12:32:19.946Z,97335.00
2022-08-04T12:35:03.090Z,97341.00
2022-08-04T12:37:49.410Z,97333.00
2022-08-04T12:40:30.108Z,97336.00
2022-08-04T12:43:27.361Z,97344.00
2022-08-04T12:45:59.690Z,97326.00
2022-08-04T12:48:28.324Z,97332.00
2022-08-04T12:50:58.650Z,97342.00
2022-08-04T12:53:51.217Z,97336.00
2022-08-04T12:56:27.919Z,97328.00
2022-08-04T12:59:06.171Z,97325.00
2022-08-04T13:02:10.270Z,97338.00
2022-08-04T13:04:42.642Z,97335.00
2022-08-04T13:07:21.135Z,97339.00
2022-08-04T13:09:49.595Z,97347.00
2022-08-04T13:12:32.254Z,97349.00
2022-08-04T13:15:17.966Z,97353.00
2022-08-04T13:17:57.359Z,97356.00
2022-08-04T13:20:40.097Z,97356.00
2022-08-04T13:23:21.964Z,97328.00
2022-08-04T13:28:44.959Z,97311.00
2022-08-04T13:30:24.379Z,97321.00
2022-08-04T13:31:20.680Z,97316.00
2022-08-04T13:33:51.563Z,97317.00
2022-08-04T13:36:25.674Z,97324.00
2022-08-04T13:38:58.576Z,97307.00
2022-08-04T13:41:31.220Z,97305.00
2022-08-04T13:44:19.219Z,97303.00
2022-08-04T13:47:03.352Z,97303.00
2022-08-04T13:49:43.003Z,97303.00
2022-08-04T13:52:18.142Z,97310.00
2022-08-04T13:54:48.454Z,97306.00
2022-08-04T13:57:31.540Z,97303.00
2022-08-04T14:00:05.721Z,97308.00
2022-08-04T14:02:50.249Z,97301.00
2022-08-04T14:05:28.727Z,97303.00
2022-08-04T14:08:36.571Z,97297.00
2022-08-04T14:11:05.483Z,97307.00
2022-08-04T14:13:40.958Z,97305.00
2022-08-04T14:16:22.038Z,97304.00
2022-08-04T14:19:00.838Z,97293.00
2022-08-04T14:21:28.321Z,97305.00
2022-08-04T14:23:57.282Z,97293.00
2022-08-04T14:26:35.440Z,97299.00
2022-08-04T14:29:26.402Z,97301.00
2022-08-04T14:32:10.537Z,97293.00
2022-08-04T14:34:41.613Z,97286.00
2022-08-04T14:37:19.327Z,97288.00
2022-08-04T14:40:17.953Z,97298.00
2022-08-04T14:42:54.533Z,97295.00
2022-08-04T14:45:34.310Z,97294.00
2022-08-04T14:48:11.952Z,97296.00
2022-08-04T14:50:48.427Z,97283.00
2022-08-04T14:53:26.754Z,97290.00
2022-08-04T14:55:57.562Z,97301.00
2022-08-04T14:58:39.472Z,97292.00
2022-08-04T15:01:12.130Z,97292.00
2022-08-04T15:03:50.402Z,97285.00
2022-08-04T15:06:26.226Z,97290.00
2022-08-04T15:08:57.450Z,97291.00
2022-08-04T15:11:25.803Z,97286.00
2022-08-04T15:13:53.572Z,97306.00
2022-08-04T15:16:22.688Z,97300.00
2022-08-04T15:18:54.471Z,97294.00
2022-08-04T15:21:24.139Z,97306.00
2022-08-04T15:23:51.762Z,97292.00
2022-08-04T15:26:28.163Z,97285.00
2022-08-04T15:29:02.539Z,97301.00
2022-08-04T15:32:07.087Z,97300.00
2022-08-04T15:34:23.743Z,97283.00
2022-08-04T15:36:57.237Z,97305.00
2022-08-04T15:39:35.968Z,97301.00
2022-08-04T15:42:45.971Z,97300.00
2022-08-04T15:46:04.262Z,97298.00
2022-08-04T15:48:13.221Z,97312.00
2022-08-04T15:50:58.443Z,97303.00
2022-08-04T15:54:02.345Z,97299.00
2022-08-04T15:56:23.748Z,97314.00
2022-08-04T15:58:55.080Z,97300.00
2022-08-04T16:01:23.267Z,97312.00
2022-08-04T16:04:01.157Z,97302.00
2022-08-04T16:06:29.410Z,97305.00
2022-08-04T16:09:03.056Z,97312.00
2022-08-04T16:11:32.210Z,97290.00
2022-08-04T16:13:59.451Z,97295.00
2022-08-04T16:16:36.514Z,97300.00
2022-08-04T16:19:10.008Z,97293.00
2022-08-04T16:22:00.332Z,97290.00
2022-08-04T16:24:38.314Z,97291.00
2022-08-04T16:27:14.241Z,97289.00
2022-08-04T16:29:49.198Z,97292.00
2022-08-04T16:32:23.174Z,97296.00
2022-08-04T16:34:54.615Z,97295.00
2022-08-04T16:37:35.571Z,97288.00
2022-08-04T16:40:39.708Z,97301.00
2022-08-04T16:43:14.135Z,97302.00
2022-08-04T16:45:51.611Z,97303.00
2022-08-04T16:48:38.943Z,97303.00
2022-08-04T16:51:15.406Z,97307.00
2022-08-04T16:53:52.848Z,97314.00
2022-08-04T16:56:30.500Z,97305.00
2022-08-04T16:59:08.268Z,97305.00
2022-08-04T17:01:36.362Z,97300.00
2022-08-04T17:04:05.845Z,97304.00
2022-08-04T17:06:40.480Z,97315.00
2022-08-04T17:09:16.255Z,97312.00
2022-08-04T17:11:45.887Z,97316.00
2022-08-04T17:14:21.086Z,97335.00
2022-08-04T17:16:48.354Z,97354.00
2022-08-04T17:19:24.140Z,97354.00
2022-08-04T17:22:05.857Z,97341.00
2022-08-04T17:24:38.141Z,97365.00
2022-08-04T17:29:53.646Z,97362.00
2022-08-04T17:32:22.867Z,97363.00
2022-08-04T17:35:03.864Z,97355.00
2022-08-04T17:37:40.181Z,97349.00
2022-08-04T17:44:04.881Z,97344.00
2022-08-04T17:46:33.993Z,97354.00
2022-08-04T17:49:22.132Z,97339.00
2022-08-04T17:52:06.072Z,97330.00
2022-08-04T17:54:40.339Z,97322.00
2022-08-04T17:57:19.973Z,97332.00
2022-08-04T17:59:57.601Z,97334.00
2022-08-04T18:05:50.211Z,97335.00
2022-08-04T18:08:41.415Z,97311.00
2022-08-04T18:11:03.806Z,97312.00
2022-08-04T18:13:42.563Z,97316.00
2022-08-04T18:16:22.421Z,97314.00
2022-08-04T18:19:14.538Z,97303.00
2022-08-04T18:21:46.834Z,97312.00
2022-08-04T18:24:35.131Z,97315.00
2022-08-04T18:27:19.711Z,97315.00
2022-08-04T18:29:56.472Z,97313.00
2022-08-04T18:32:36.352Z,97308.00
2022-08-04T18:35:07.084Z,97302.00
2022-08-04T18:38:05.262Z,97301.00
2022-08-04T18:40:34.352Z,97296.00
2022-08-04T18:43:06.104Z,97302.00
2022-08-04T18:45:34.448Z,97295.00
2022-08-04T18:48:04.093Z,97308.00
2022-08-04T18:51:10.505Z,97302.00
2022-08-04T18:53:23.372Z,97295.00
2022-08-04T18:55:57.270Z,97291.00
2022-08-04T18:58:27.216Z,97298.00
2022-08-04T19:00:56.215Z,97297.00
2022-08-04T19:03:33.261Z,97294.00
2022-08-04T19:06:02.896Z,97296.00
2022-08-04T19:08:33.371Z,97304.00
2022-08-04T19:11:37.315Z,97319.00
2022-08-04T19:13:54.837Z,97316.00
2022-08-04T19:16:31.391Z,97306.00
2022-08-04T19:19:00.627Z,97305.00
2022-08-04T19:22:00.952Z,97316.00
2022-08-04T19:24:32.156Z,97325.00
2022-08-04T19:27:06.827Z,97337.00
2022-08-04T19:29:40.842Z,97334.00
2022-08-04T19:32:14.700Z,97335.00
2022-08-04T19:34:47.099Z,97335.00
2022-08-04T19:37:56.856Z,97339.00
2022-08-04T19:40:08.185Z,97354.00
2022-08-04T19:42:36.957Z,97366.00
2022-08-04T19:45:05.492Z,97362.00
2022-08-04T19:48:16.338Z,97361.00
2022-08-04T19:50:19.835Z,97356.00
2022-08-04T19:52:52.566Z,97360.00
2022-08-04T19:55:37.380Z,97358.00
2022-08-04T19:58:08.898Z,97372.00
2022-08-04T20:00:39.020Z,97351.00
2022-08-04T20:03:11.359Z,97358.00
2022-08-04T20:05:53.588Z,97352.00
2022-08-04T20:08:26.511Z,97343.00
2022-08-04T20:10:55.222Z,97346.00
2022-08-04T20:13:25.304Z,97341.00
2022-08-04T20:15:58.847Z,97345.00
2022-08-04T20:18:35.975Z,97360.00
2022-08-04T20:24:38.988Z,97344.00
2022-08-04T20:26:51.512Z,97356.00
2022-08-04T20:29:36.939Z,97361.00
2022-08-04T20:32:09.490Z,97367.00
2022-08-04T20:34:38.177Z,97377.00
2022-08-04T20:37:10.164Z,97375.00
2022-08-04T20:39:37.677Z,97372.00
2022-08-04T20:42:05.043Z,97368.00
2022-08-04T20:44:33.716Z,97373.00
2022-08-04T20:47:01.555Z,97374.00
2022-08-04T20:49:35.017Z,97384.00
2022-08-04T20:52:13.219Z,97383.00
2022-08-04T20:54:48.609Z,97388.00
2022-08-04T20:57:16.654Z,97393.00
2022-08-04T20:59:50.322Z,97403.00
2022-08-04T21:02:27.908Z,97398.00
2022-08-04T21:04:55.985Z,97395.00
2022-08-04T21:07:24.832Z,97412.00
2022-08-04T21:09:52.525Z,97422.00
2022-08-04T21:12:28.347Z,97419.00
2022-08-04T21:15:00.080Z,97418.00
2022-08-04T21:17:58.589Z,97408.00
2022-08-04T21:20:16.878Z,97404.00
2022-08-04T21:22:54.620Z,97401.00
2022-08-04T21:25:22.189Z,97405.00
2022-08-04T21:27:49.726Z,97417.00
2022-08-04T21:30:25.374Z,97415.00
2022-08-04T21:32:55.326Z,97418.00
2022-08-04T21:35:36.648Z,97419.00
2022-08-04T21:38:04.367Z,97414.00
2022-08-04T21:41:01.763Z,97417.00
2022-08-04T21:43:42.328Z,97423.00
2022-08-04T21:46:10.333Z,97423.00
2022-08-04T21:48:39.126Z,97433.00
2022-08-04T21:51:59.400Z,97427.00
2022-08-04T21:54:17.397Z,97447.00
2022-08-04T21:56:50.743Z,97438.00
2022-08-04T21:59:28.592Z,97446.00
2022-08-04T22:02:00.473Z,97451.00
2022-08-04T22:04:28.903Z,97447.00
2022-08-04T22:06:56.054Z,97460.00
2022-08-04T22:09:23.005Z,97480.00
2022-08-04T22:11:51.795Z,97464.00
2022-08-04T22:14:27.480Z,97463.00
2022-08-04T22:17:02.658Z,97479.00
2022-08-04T22:19:50.027Z,97477.00
2022-08-04T22:22:25.289Z,97489.00
2022-08-04T22:28:00.894Z,97485.00
2022-08-04T22:30:36.476Z,97491.00
2022-08-04T22:33:08.327Z,97487.00
2022-08-04T22:35:49.519Z,97483.00
2022-08-04T22:38:24.365Z,97475.00
2022-08-04T22:41:06.144Z,97488.00
2022-08-04T22:43:34.845Z,97486.00
2022-08-04T22:46:12.228Z,97476.00
2022-08-04T22:48:43.338Z,97477.00
2022-08-04T22:51:13.032Z,97476.00
2022-08-04T22:53:40.798Z,97466.00
2022-08-04T22:56:10.719Z,97460.00
2022-08-04T22:58:50.946Z,97464.00
2022-08-04T23:01:19.136Z,97467.00
2022-08-04T23:03:50.925Z,97460.00
2022-08-04T23:06:28.489Z,97476.00
2022-08-04T23:08:56.818Z,97456.00
2022-08-04T23:11:34.358Z,97470.00
2022-08-04T23:14:02.875Z,97460.00
2022-08-04T23:16:30.097Z,97462.00
2022-08-04T23:18:56.965Z,97468.00
2022-08-04T23:21:24.386Z,97467.00
2022-08-04T23:24:02.153Z,97461.00
2022-08-04T23:26:31.554Z,97449.00
2022-08-04T23:28:58.909Z,97464.00
2022-08-04T23:31:38.914Z,97459.00
2022-08-04T23:34:08.647Z,97460.00
2022-08-04T23:36:38.599Z,97476.00
2022-08-04T23:39:06.411Z,97472.00
2022-08-04T23:41:54.015Z,97477.00
2022-08-04T23:44:26.903Z,97483.00
2022-08-04T23:47:03.571Z,97479.00
2022-08-04T23:49:42.255Z,97481.00
2022-08-04T23:52:27.699Z,97454.00
2022-08-04T23:54:59.204Z,97444.00
2022-08-04T23:57:31.681Z,97351.00
